createdAt,value
2023-03-24T00:01:46.689Z,2.90
2023-03-24T00:04:14.243Z,2.53
2023-03-24T00:06:41.138Z,2.60
2023-03-24T00:09:07.862Z,2.63
2023-03-24T00:11:34.634Z,2.33
2023-03-24T00:14:02.742Z,2.97
2023-03-24T00:16:30.012Z,2.03
2023-03-24T00:18:56.644Z,2.33
2023-03-24T00:21:24.769Z,2.43
2023-03-24T00:23:54.451Z,3.00
2023-03-24T00:26:21.527Z,1.70
2023-03-24T00:28:49.127Z,2.37
2023-03-24T00:31:16.890Z,1.90
2023-03-24T00:33:45.165Z,2.67
2023-03-24T00:36:12.475Z,2.17
2023-03-24T00:38:40.834Z,2.87
2023-03-24T00:41:08.689Z,2.30
2023-03-24T00:43:35.455Z,2.20
2023-03-24T00:46:07.804Z,2.30
2023-03-24T00:48:34.861Z,2.50
2023-03-24T00:51:02.964Z,2.40
2023-03-24T00:53:29.964Z,2.50
2023-03-24T00:55:58.266Z,2.27
2023-03-24T00:58:25.813Z,2.50
2023-03-24T01:00:57.124Z,2.33
2023-03-24T01:03:27.435Z,1.90
2023-03-24T01:05:57.664Z,2.13
2023-03-24T01:08:25.574Z,2.50
2023-03-24T01:10:55.454Z,2.00
2023-03-24T01:13:28.412Z,1.90
2023-03-24T01:15:55.632Z,2.47
2023-03-24T01:18:23.953Z,2.37
2023-03-24T01:20:51.331Z,1.63
2023-03-24T01:23:24.482Z,2.70
2023-03-24T01:25:52.461Z,2.43
2023-03-24T01:28:24.945Z,2.50
2023-03-24T01:30:52.879Z,2.40
2023-03-24T01:33:19.574Z,2.23
2023-03-24T01:35:46.935Z,2.40
2023-03-24T01:38:14.329Z,2.00
2023-03-24T01:40:45.963Z,2.17
2023-03-24T01:43:21.574Z,3.07
2023-03-24T01:45:58.397Z,2.87
2023-03-24T01:48:45.056Z,2.67
2023-03-24T01:51:35.460Z,2.37
2023-03-24T01:54:06.167Z,2.57
2023-03-24T01:56:35.558Z,3.00
2023-03-24T01:59:05.771Z,2.47
2023-03-24T02:01:32.427Z,2.87
2023-03-24T02:04:00.432Z,2.80
2023-03-24T02:06:27.203Z,2.73
2023-03-24T02:08:56.399Z,2.87
2023-03-24T02:11:26.712Z,2.57
2023-03-24T02:13:53.808Z,2.80
2023-03-24T02:16:23.248Z,2.60
2023-03-24T02:19:03.153Z,2.67
2023-03-24T02:22:07.337Z,4.00
2023-03-24T02:24:59.916Z,2.87
2023-03-24T02:27:47.968Z,3.20
2023-03-24T02:30:34.317Z,3.43
2023-03-24T02:33:32.034Z,2.97
2023-03-24T02:36:04.541Z,2.77
2023-03-24T02:38:53.449Z,2.93
2023-03-24T02:41:33.732Z,2.57
2023-03-24T02:44:03.248Z,2.97
2023-03-24T02:46:33.750Z,3.30
2023-03-24T02:49:00.335Z,3.00
2023-03-24T02:51:35.818Z,3.00
2023-03-24T02:54:12.672Z,3.17
2023-03-24T02:56:47.891Z,3.00
2023-03-24T02:59:42.844Z,3.07
2023-03-24T03:02:13.676Z,3.57
2023-03-24T03:04:49.039Z,3.23
2023-03-24T03:07:21.636Z,3.13
2023-03-24T03:09:55.842Z,3.30
2023-03-24T03:12:23.451Z,3.20
2023-03-24T03:14:56.718Z,3.67
2023-03-24T03:17:30.785Z,3.40
2023-03-24T03:20:08.226Z,3.57
2023-03-24T03:22:43.152Z,3.80
2023-03-24T03:25:12.129Z,3.33
2023-03-24T03:27:40.274Z,3.40
2023-03-24T03:30:10.957Z,3.90
2023-03-24T03:32:41.419Z,3.37
2023-03-24T03:35:14.547Z,4.33
2023-03-24T03:37:47.868Z,3.40
2023-03-24T03:40:17.194Z,2.93
2023-03-24T03:42:44.167Z,3.27
2023-03-24T03:45:11.094Z,2.90
2023-03-24T03:47:37.732Z,3.63
2023-03-24T03:50:06.418Z,3.53
2023-03-24T03:52:32.999Z,3.17
2023-03-24T03:54:59.891Z,3.27
2023-03-24T03:57:26.914Z,3.70
2023-03-24T03:59:53.427Z,3.90
2023-03-24T04:02:29.389Z,4.00
2023-03-24T04:05:29.119Z,3.90
2023-03-24T04:08:04.768Z,4.00
2023-03-24T04:10:45.962Z,4.10
2023-03-24T04:13:21.816Z,5.83
2023-03-24T04:16:19.172Z,5.00
2023-03-24T04:19:10.962Z,5.00
2023-03-24T04:21:54.242Z,3.70
2023-03-24T04:24:51.952Z,4.30
2023-03-24T04:27:28.043Z,4.40
2023-03-24T04:30:06.264Z,4.10
2023-03-24T04:32:41.577Z,4.50
2023-03-24T04:35:11.643Z,4.60
2023-03-24T04:37:38.794Z,5.30
2023-03-24T04:40:11.669Z,5.30
2023-03-24T04:42:42.770Z,4.77
2023-03-24T04:45:09.873Z,5.10
2023-03-24T04:47:43.182Z,4.60
2023-03-24T04:50:11.553Z,4.97
2023-03-24T04:52:39.601Z,4.90
2023-03-24T04:55:26.494Z,5.43
2023-03-24T04:57:53.519Z,6.50
2023-03-24T05:00:20.195Z,6.20
2023-03-24T05:02:48.067Z,6.43
2023-03-24T05:05:16.021Z,5.00
2023-03-24T05:07:42.505Z,5.23
2023-03-24T05:10:09.392Z,5.20
2023-03-24T05:12:36.208Z,4.40
2023-03-24T05:15:04.058Z,2.40
2023-03-24T05:17:30.638Z,1.93
2023-03-24T05:19:57.153Z,1.77
2023-03-24T05:22:23.671Z,2.00
2023-03-24T05:24:50.261Z,2.67
2023-03-24T05:27:16.729Z,2.37
2023-03-24T05:29:43.478Z,2.27
2023-03-24T05:32:10.015Z,2.00
2023-03-24T05:34:36.767Z,2.40
2023-03-24T05:37:03.294Z,2.60
2023-03-24T05:39:29.851Z,3.33
2023-03-24T05:41:56.608Z,2.93
2023-03-24T05:44:23.106Z,2.87
2023-03-24T05:46:49.673Z,2.77
2023-03-24T05:49:16.446Z,2.97
2023-03-24T05:51:43.130Z,2.73
2023-03-24T05:54:09.882Z,3.33
2023-03-24T05:56:38.784Z,3.67
2023-03-24T05:59:05.376Z,3.57
2023-03-24T06:01:32.275Z,3.67
2023-03-24T06:03:58.878Z,3.60
2023-03-24T06:06:26.274Z,3.63
2023-03-24T06:08:54.548Z,3.23
2023-03-24T06:11:21.384Z,3.60
2023-03-24T06:13:47.954Z,3.33
2023-03-24T06:16:14.780Z,3.90
2023-03-24T06:18:42.660Z,3.30
2023-03-24T06:21:09.730Z,3.20
2023-03-24T06:23:36.271Z,2.90
2023-03-24T06:26:09.106Z,3.00
2023-03-24T06:28:35.604Z,2.90
2023-03-24T06:31:20.060Z,3.43
2023-03-24T06:33:48.139Z,3.17
2023-03-24T06:36:15.114Z,3.30
2023-03-24T06:38:42.161Z,3.60
2023-03-24T06:41:09.083Z,4.00
2023-03-24T06:43:35.932Z,3.87
2023-03-24T06:46:02.938Z,4.60
2023-03-24T06:48:29.584Z,3.63
2023-03-24T06:50:56.055Z,3.67
2023-03-24T06:53:22.864Z,3.33
2023-03-24T06:55:50.810Z,4.50
2023-03-24T06:58:17.861Z,3.73
2023-03-24T07:00:46.741Z,4.40
2023-03-24T07:03:15.674Z,3.80
2023-03-24T07:05:44.615Z,3.70
2023-03-24T07:10:44.425Z,3.10
2023-03-24T07:13:11.579Z,3.67
2023-03-24T07:15:39.245Z,3.30
2023-03-24T07:18:06.559Z,2.90
2023-03-24T07:20:33.387Z,3.00
2023-03-24T07:22:59.884Z,2.67
2023-03-24T07:25:26.776Z,3.37
2023-03-24T07:27:55.684Z,3.73
2023-03-24T07:30:30.071Z,2.90
2023-03-24T07:33:05.246Z,2.97
2023-03-24T07:35:31.883Z,3.67
2023-03-24T07:38:00.826Z,3.87
2023-03-24T07:40:27.749Z,3.70
2023-03-24T07:42:54.328Z,4.50
2023-03-24T07:45:20.854Z,3.43
2023-03-24T07:47:47.421Z,4.00
2023-03-24T07:50:14.747Z,4.50
2023-03-24T07:52:43.705Z,3.90
2023-03-24T07:55:15.726Z,3.80
2023-03-24T07:57:43.370Z,3.53
2023-03-24T08:00:15.599Z,4.20
2023-03-24T08:02:42.764Z,4.43
2023-03-24T08:05:10.629Z,3.30
2023-03-24T08:07:37.180Z,2.90
2023-03-24T08:10:04.000Z,2.97
2023-03-24T08:12:30.633Z,2.50
2023-03-24T08:14:57.154Z,2.40
2023-03-24T08:17:23.625Z,2.27
2023-03-24T08:20:00.060Z,3.40
2023-03-24T08:22:27.290Z,2.40
2023-03-24T08:24:53.862Z,2.80
2023-03-24T08:27:20.529Z,2.63
2023-03-24T08:29:47.168Z,3.03
2023-03-24T08:32:13.896Z,3.10
2023-03-24T08:34:40.370Z,2.93
2023-03-24T08:37:07.814Z,2.60
2023-03-24T08:39:35.920Z,2.43
2023-03-24T08:42:02.608Z,2.60
2023-03-24T08:44:31.061Z,2.60
2023-03-24T08:47:00.906Z,3.57
2023-03-24T08:49:27.603Z,2.90
2023-03-24T08:51:54.208Z,2.20
2023-03-24T08:54:23.469Z,2.57
2023-03-24T08:56:50.820Z,2.97
2023-03-24T08:59:17.977Z,1.90
2023-03-24T09:01:44.973Z,2.13
2023-03-24T09:04:14.579Z,2.20
2023-03-24T09:06:41.596Z,2.57
2023-03-24T09:09:08.224Z,2.57
2023-03-24T09:11:36.268Z,2.33
2023-03-24T09:14:04.030Z,2.23
2023-03-24T09:16:30.640Z,1.80
2023-03-24T09:18:57.304Z,2.60
2023-03-24T09:21:24.103Z,2.40
2023-03-24T09:23:50.798Z,2.43
2023-03-24T09:26:17.413Z,2.90
2023-03-24T09:28:44.032Z,2.97
2023-03-24T09:31:10.901Z,2.97
2023-03-24T09:33:37.693Z,3.00
2023-03-24T09:36:04.892Z,2.10
2023-03-24T09:38:33.489Z,2.90
2023-03-24T09:41:02.730Z,2.97
2023-03-24T09:43:46.687Z,3.00
2023-03-24T09:46:16.083Z,3.10
2023-03-24T09:48:47.711Z,3.30
2023-03-24T09:51:27.135Z,3.00
2023-03-24T09:54:11.581Z,3.77
2023-03-24T09:56:39.548Z,2.57
2023-03-24T09:59:10.514Z,2.47
2023-03-24T10:01:37.194Z,2.37
2023-03-24T10:04:04.760Z,2.37
2023-03-24T10:06:41.802Z,2.67
2023-03-24T10:09:14.208Z,1.83
2023-03-24T10:12:02.327Z,2.93
2023-03-24T10:14:47.900Z,2.40
2023-03-24T10:17:23.880Z,3.67
2023-03-24T10:20:17.731Z,2.40
2023-03-24T10:23:12.321Z,2.67
2023-03-24T10:25:43.358Z,2.80
2023-03-24T10:28:18.510Z,3.10
2023-03-24T10:30:48.146Z,3.07
2023-03-24T10:33:15.494Z,3.03
2023-03-24T10:35:57.139Z,3.20
2023-03-24T10:38:23.821Z,2.60
2023-03-24T10:40:50.723Z,2.73
2023-03-24T10:43:19.272Z,2.73
2023-03-24T10:45:51.713Z,2.90
2023-03-24T10:49:11.870Z,2.90
2023-03-24T10:51:39.844Z,2.53
2023-03-24T10:54:26.369Z,3.03
2023-03-24T10:57:00.678Z,2.93
2023-03-24T10:59:32.082Z,3.30
2023-03-24T11:02:20.859Z,3.40
2023-03-24T11:05:02.552Z,3.30
2023-03-24T11:07:40.716Z,3.50
2023-03-24T11:10:10.327Z,3.30
2023-03-24T11:12:39.148Z,2.70
2023-03-24T11:15:23.656Z,3.00
2023-03-24T11:18:02.150Z,3.10
2023-03-24T11:20:40.594Z,3.10
2023-03-24T11:23:25.406Z,3.40
2023-03-24T11:26:23.704Z,3.30
2023-03-24T11:28:56.309Z,3.30
2023-03-24T11:31:35.096Z,2.57
2023-03-24T11:34:14.782Z,2.80
2023-03-24T11:36:58.419Z,2.57
2023-03-24T11:39:30.202Z,2.17
2023-03-24T11:42:04.609Z,2.07
2023-03-24T11:44:41.538Z,1.77
2023-03-24T11:47:26.951Z,2.13
2023-03-24T11:49:58.869Z,1.77
2023-03-24T11:52:29.433Z,1.90
2023-03-24T11:54:55.934Z,2.00
2023-03-24T11:57:41.228Z,2.10
2023-03-24T12:00:41.687Z,2.27
2023-03-24T12:03:11.426Z,1.67
2023-03-24T12:05:42.952Z,2.27
2023-03-24T12:08:33.645Z,1.97
2023-03-24T12:11:22.070Z,2.00
2023-03-24T12:13:49.800Z,1.50
2023-03-24T12:16:28.587Z,2.00
2023-03-24T12:19:13.352Z,1.93
2023-03-24T12:21:49.340Z,2.50
2023-03-24T12:24:43.800Z,1.60
2023-03-24T12:27:34.589Z,2.30
2023-03-24T12:30:06.588Z,1.77
2023-03-24T12:32:49.688Z,2.10
2023-03-24T12:35:40.299Z,1.87
2023-03-24T12:38:25.740Z,1.50
2023-03-24T12:41:13.598Z,1.30
2023-03-24T12:44:04.976Z,1.60
2023-03-24T12:46:52.516Z,1.80
2023-03-24T12:49:27.799Z,1.90
2023-03-24T12:52:19.213Z,2.30
2023-03-24T12:54:47.489Z,2.13
2023-03-24T12:57:16.844Z,2.10
2023-03-24T12:59:46.742Z,2.10
2023-03-24T13:02:25.329Z,2.03
2023-03-24T13:04:54.749Z,2.20
2023-03-24T13:07:25.844Z,2.17
2023-03-24T13:10:06.866Z,2.57
2023-03-24T13:12:58.019Z,2.40
2023-03-24T13:15:36.359Z,1.80
2023-03-24T13:18:20.982Z,2.00
2023-03-24T13:21:17.385Z,2.13
2023-03-24T13:24:09.374Z,2.93
2023-03-24T13:26:54.021Z,2.00
2023-03-24T13:29:48.987Z,2.60
2023-03-24T13:32:25.142Z,2.40
2023-03-24T13:35:24.926Z,2.20
2023-03-24T13:37:54.255Z,2.27
2023-03-24T13:40:25.976Z,2.03
2023-03-24T13:42:58.500Z,2.83
2023-03-24T13:45:40.739Z,2.30
2023-03-24T13:48:10.447Z,2.27
2023-03-24T13:50:53.649Z,2.50
2023-03-24T13:53:36.902Z,1.73
2023-03-24T13:56:05.619Z,2.13
2023-03-24T13:59:06.687Z,1.93
2023-03-24T14:01:42.131Z,2.50
2023-03-24T14:04:43.565Z,1.70
2023-03-24T14:07:28.495Z,2.03
2023-03-24T14:10:22.791Z,1.80
2023-03-24T14:12:58.223Z,1.73
2023-03-24T14:15:32.565Z,1.90
2023-03-24T14:18:24.254Z,2.00
2023-03-24T14:21:10.239Z,2.20
2023-03-24T14:23:50.633Z,1.70
2023-03-24T14:26:20.006Z,2.80
2023-03-24T14:28:57.172Z,2.23
2023-03-24T14:31:45.619Z,2.50
2023-03-24T14:34:21.159Z,2.10
2023-03-24T14:37:01.295Z,2.17
2023-03-24T14:39:40.953Z,1.87
2023-03-24T14:42:32.885Z,2.33
2023-03-24T14:45:04.532Z,1.43
2023-03-24T14:47:35.991Z,1.60
2023-03-24T14:50:12.521Z,2.10
2023-03-24T14:52:47.628Z,2.17
2023-03-24T14:55:19.720Z,1.60
2023-03-24T14:57:50.228Z,1.73
2023-03-24T15:00:36.612Z,1.93
2023-03-24T15:03:16.593Z,2.10
2023-03-24T15:05:43.276Z,1.70
2023-03-24T15:08:13.058Z,2.23
2023-03-24T15:10:43.863Z,2.40
2023-03-24T15:13:33.089Z,1.90
2023-03-24T15:16:00.934Z,2.47
2023-03-24T15:18:27.778Z,2.30
2023-03-24T15:20:54.404Z,2.03
2023-03-24T15:23:24.423Z,1.50
2023-03-24T15:25:52.672Z,2.20
2023-03-24T15:28:27.926Z,2.40
2023-03-24T15:30:56.582Z,2.77
2023-03-24T15:33:23.624Z,3.00
2023-03-24T15:35:56.850Z,2.90
2023-03-24T15:38:31.985Z,2.97
2023-03-24T15:41:09.877Z,3.17
2023-03-24T15:43:44.576Z,2.90
2023-03-24T15:46:22.672Z,3.07
2023-03-24T15:48:49.585Z,2.80
2023-03-24T15:51:16.359Z,2.70
2023-03-24T15:53:49.042Z,2.63
2023-03-24T15:56:18.053Z,2.80
2023-03-24T15:58:56.981Z,2.77
2023-03-24T16:01:31.617Z,2.27
2023-03-24T16:04:01.182Z,2.40
2023-03-24T16:06:35.141Z,2.50
2023-03-24T16:09:06.671Z,2.70
2023-03-24T16:11:33.444Z,1.93
2023-03-24T16:14:00.501Z,2.40
2023-03-24T16:16:29.205Z,2.20
2023-03-24T16:18:59.540Z,2.20
2023-03-24T16:21:28.488Z,2.47
2023-03-24T16:23:56.863Z,2.07
2023-03-24T16:26:24.422Z,2.10
2023-03-24T16:28:52.520Z,2.10
2023-03-24T16:31:31.186Z,1.87
2023-03-24T16:33:58.248Z,2.30
2023-03-24T16:36:28.305Z,2.20
2023-03-24T16:38:57.294Z,2.30
2023-03-24T16:41:24.125Z,2.30
2023-03-24T16:43:50.978Z,2.20
2023-03-24T16:46:27.285Z,2.70
2023-03-24T16:48:54.337Z,2.13
2023-03-24T16:51:21.660Z,1.03
2023-03-24T16:53:48.292Z,1.00
2023-03-24T16:56:18.311Z,1.53
2023-03-24T16:58:47.815Z,1.10
2023-03-24T17:01:29.675Z,1.03
2023-03-24T17:03:58.049Z,0.83
2023-03-24T17:06:25.704Z,1.00
2023-03-24T17:08:52.511Z,1.10
2023-03-24T17:11:25.962Z,0.97
2023-03-24T17:13:54.206Z,1.20
2023-03-24T17:16:20.784Z,1.13
2023-03-24T17:18:48.409Z,1.10
2023-03-24T17:21:17.125Z,1.27
2023-03-24T17:23:46.786Z,1.17
2023-03-24T17:26:13.490Z,1.37
2023-03-24T17:28:40.278Z,1.60
2023-03-24T17:31:06.867Z,2.47
2023-03-24T17:33:33.791Z,1.77
2023-03-24T17:36:00.648Z,1.43
2023-03-24T17:38:27.203Z,1.47
2023-03-24T17:41:01.829Z,1.80
2023-03-24T17:43:28.562Z,4.20
2023-03-24T17:45:59.573Z,3.93
2023-03-24T17:48:27.920Z,4.30
2023-03-24T17:50:56.010Z,7.37
2023-03-24T17:53:28.484Z,6.10
2023-03-24T17:55:57.186Z,3.07
2023-03-24T17:58:26.895Z,4.17
2023-03-24T18:00:54.276Z,2.40
2023-03-24T18:03:21.786Z,7.00
2023-03-24T18:05:48.494Z,4.17
2023-03-24T18:08:15.336Z,7.70
2023-03-24T18:10:41.991Z,4.70
2023-03-24T18:13:10.441Z,4.17
2023-03-24T18:15:37.067Z,4.30
2023-03-24T18:18:03.713Z,3.00
2023-03-24T18:20:30.451Z,2.50
2023-03-24T18:22:56.905Z,3.70
2023-03-24T18:25:23.590Z,3.50
2023-03-24T18:27:50.078Z,3.27
2023-03-24T18:30:17.517Z,2.60
2023-03-24T18:32:44.145Z,3.20
2023-03-24T18:35:18.194Z,3.63
2023-03-24T18:37:44.818Z,4.00
2023-03-24T18:40:12.836Z,4.50
2023-03-24T18:42:39.323Z,5.63
2023-03-24T18:45:07.124Z,6.03
2023-03-24T18:47:35.197Z,4.77
2023-03-24T18:50:02.928Z,5.27
2023-03-24T18:52:32.919Z,3.20
2023-03-24T18:55:02.419Z,2.80
2023-03-24T18:57:29.238Z,3.30
2023-03-24T18:59:55.890Z,6.20
2023-03-24T19:02:22.489Z,3.53
2023-03-24T19:04:49.631Z,4.50
2023-03-24T19:07:24.238Z,4.57
2023-03-24T19:09:51.438Z,3.97
2023-03-24T19:12:20.290Z,3.10
2023-03-24T19:14:46.960Z,3.50
2023-03-24T19:17:13.528Z,1.93
2023-03-24T19:19:41.931Z,4.90
2023-03-24T19:22:08.498Z,3.37
2023-03-24T19:24:34.991Z,2.83
2023-03-24T19:27:01.986Z,2.33
2023-03-24T19:29:28.501Z,2.30
2023-03-24T19:31:55.034Z,3.97
2023-03-24T19:34:21.529Z,7.67
2023-03-24T19:36:49.664Z,3.00
2023-03-24T19:39:18.049Z,1.70
2023-03-24T19:41:44.823Z,3.10
2023-03-24T19:44:11.492Z,2.53
2023-03-24T19:46:38.067Z,2.37
2023-03-24T19:49:04.696Z,2.47
2023-03-24T19:51:31.644Z,2.50
2023-03-24T19:53:58.333Z,3.00
2023-03-24T19:56:25.217Z,2.50
2023-03-24T19:58:51.815Z,4.47
2023-03-24T20:01:20.040Z,4.20
2023-03-24T20:03:49.946Z,3.03
2023-03-24T20:06:19.528Z,3.07
2023-03-24T20:08:46.895Z,2.27
2023-03-24T20:11:13.573Z,2.23
2023-03-24T20:13:40.241Z,2.10
2023-03-24T20:16:07.022Z,2.60
2023-03-24T20:18:35.685Z,2.30
2023-03-24T20:21:02.317Z,2.70
2023-03-24T20:23:29.121Z,2.03
2023-03-24T20:25:59.052Z,2.17
2023-03-24T20:28:26.536Z,2.40
2023-03-24T20:31:01.625Z,2.03
2023-03-24T20:33:31.069Z,1.97
2023-03-24T20:35:57.977Z,1.83
2023-03-24T20:38:31.672Z,1.83
2023-03-24T20:41:06.305Z,2.00
2023-03-24T20:43:37.175Z,2.20
2023-03-24T20:46:05.452Z,1.83
2023-03-24T20:48:32.227Z,1.77
2023-03-24T20:51:00.219Z,1.80
2023-03-24T20:53:27.615Z,2.17
2023-03-24T20:56:06.844Z,2.10
2023-03-24T20:58:34.580Z,1.53
2023-03-24T21:01:06.055Z,1.90
2023-03-24T21:03:32.953Z,2.40
2023-03-24T21:06:00.914Z,2.53
2023-03-24T21:08:28.041Z,2.50
2023-03-24T21:10:56.179Z,2.57
2023-03-24T21:13:23.871Z,2.07
2023-03-24T21:15:50.813Z,2.47
2023-03-24T21:18:18.151Z,2.40
2023-03-24T21:20:57.765Z,1.97
2023-03-24T21:23:25.293Z,2.70
2023-03-24T21:25:52.457Z,2.40
2023-03-24T21:28:19.100Z,2.63
2023-03-24T21:30:47.095Z,4.70
2023-03-24T21:33:17.357Z,4.30
2023-03-24T21:35:43.986Z,4.30
2023-03-24T21:38:10.654Z,8.60
2023-03-24T21:40:37.293Z,3.30
2023-03-24T21:43:07.184Z,3.23
2023-03-24T21:45:36.073Z,3.00
2023-03-24T21:48:06.756Z,2.50
2023-03-24T21:50:34.696Z,1.83
2023-03-24T21:53:02.398Z,1.90
2023-03-24T21:55:28.937Z,1.90
2023-03-24T21:57:58.677Z,1.87
2023-03-24T22:00:29.716Z,2.13
2023-03-24T22:02:58.260Z,1.80
2023-03-24T22:05:27.839Z,1.70
2023-03-24T22:07:55.909Z,1.80
2023-03-24T22:10:22.792Z,1.80
2023-03-24T22:12:51.387Z,2.23
2023-03-24T22:15:18.413Z,2.20
2023-03-24T22:17:45.459Z,2.50
2023-03-24T22:20:12.943Z,2.40
2023-03-24T22:22:41.014Z,2.20
2023-03-24T22:25:09.636Z,2.60
2023-03-24T22:27:36.371Z,2.40
2023-03-24T22:30:02.999Z,2.30
2023-03-24T22:32:29.593Z,1.40
2023-03-24T22:34:56.533Z,1.80
2023-03-24T22:37:23.053Z,2.00
2023-03-24T22:39:49.562Z,6.63
2023-03-24T22:42:16.060Z,6.50
2023-03-24T22:44:42.568Z,2.40
2023-03-24T22:47:09.062Z,1.40
2023-03-24T22:49:36.743Z,1.20
2023-03-24T22:52:03.392Z,1.40
2023-03-24T22:54:30.184Z,1.20
2023-03-24T22:56:56.735Z,1.33
2023-03-24T22:59:24.630Z,1.27
2023-03-24T23:02:02.456Z,1.10
2023-03-24T23:04:35.580Z,1.43
2023-03-24T23:07:02.302Z,2.80
2023-03-24T23:09:29.777Z,1.20
2023-03-24T23:11:56.299Z,1.00
2023-03-24T23:14:25.321Z,1.20
2023-03-24T23:16:52.219Z,1.33
2023-03-24T23:19:18.785Z,1.10
2023-03-24T23:21:45.413Z,0.90
2023-03-24T23:24:11.994Z,1.13
2023-03-24T23:26:38.648Z,1.10
2023-03-24T23:29:05.357Z,1.37
2023-03-24T23:31:32.051Z,1.27
2023-03-24T23:33:58.906Z,1.40
2023-03-24T23:36:26.346Z,1.53
2023-03-24T23:38:53.427Z,1.53
2023-03-24T23:41:20.713Z,1.30
2023-03-24T23:43:51.396Z,1.33
2023-03-24T23:46:18.838Z,1.20
2023-03-24T23:48:45.815Z,1.50
2023-03-24T23:51:12.446Z,1.17
2023-03-24T23:53:39.076Z,1.10
2023-03-24T23:56:07.974Z,1.70
2023-03-24T23:58:39.732Z,1.50
